Albany, New York
Traffic Map
Current Weather Conditions
Albany, New York
Scattered Clouds
Scattered Clouds
57°
Feels Like: 57°
Wind Chill: 57° Ceiling: Unl
Heat Index: 57° Visibility: 10mi
Dew Point: 31° Wind: 8mph
Humidity: 37% Direction: 170° (S)
Pressure: 30.24in Gusts: 0mph
Raw Report DataKALB 281751Z 17007KT 10SM FEW100 SCT220 SCT260 14/M01 A3024 RMK AO2 SLP240 T01391006 10139 20022 58034
Traffic Incident Summary
Active as of:
Severity:
Category:
InformationThere was an issue retrieving the traffic information for this location. Please try a different location or try again shortly.
Advertisements
Track Severe Weather on mobile